createdAt,value
2018-06-17T00:01:02.449Z,49.14
2018-06-17T00:03:33.056Z,49.40
2018-06-17T00:06:02.578Z,49.18
2018-06-17T00:08:32.087Z,48.18
2018-06-17T00:11:01.468Z,48.00
2018-06-17T00:13:29.896Z,48.51
2018-06-17T00:15:58.375Z,47.50
2018-06-17T00:18:26.882Z,47.44
2018-06-17T00:20:56.120Z,47.95
2018-06-17T00:23:24.540Z,47.91
2018-06-17T00:25:53.040Z,47.23
2018-06-17T00:28:21.486Z,47.78
2018-06-17T00:30:50.566Z,47.52
2018-06-17T00:33:18.956Z,46.64
2018-06-17T00:35:47.633Z,47.38
2018-06-17T00:38:16.170Z,47.35
2018-06-17T00:40:46.141Z,47.15
2018-06-17T00:43:14.545Z,47.18
2018-06-17T00:45:43.009Z,47.02
2018-06-17T00:48:11.449Z,47.06
2018-06-17T00:50:39.973Z,47.05
2018-06-17T00:53:08.369Z,46.77
2018-06-17T00:55:36.787Z,46.79
2018-06-17T00:58:05.304Z,46.11
2018-06-17T01:00:34.003Z,46.86
2018-06-17T01:03:02.419Z,46.68
2018-06-17T01:05:30.937Z,45.91
2018-06-17T01:07:59.410Z,46.65
2018-06-17T01:10:28.404Z,45.88
2018-06-17T01:12:56.809Z,46.45
2018-06-17T01:15:25.453Z,45.83
2018-06-17T01:17:54.359Z,45.86
2018-06-17T01:20:22.852Z,45.81
2018-06-17T01:22:51.284Z,46.36
2018-06-17T01:25:19.685Z,46.23
2018-06-17T01:27:48.154Z,46.47
2018-06-17T01:30:16.753Z,45.55
2018-06-17T01:32:45.294Z,45.61
2018-06-17T01:35:13.704Z,46.05
2018-06-17T01:37:43.395Z,45.65
2018-06-17T01:40:11.876Z,46.07
2018-06-17T01:42:40.254Z,46.20
2018-06-17T01:45:08.666Z,45.45
2018-06-17T01:47:37.056Z,46.14
2018-06-17T01:50:05.558Z,45.53
2018-06-17T01:52:33.988Z,45.39
2018-06-17T01:55:02.422Z,46.23
2018-06-17T01:57:30.954Z,45.56
2018-06-17T01:59:59.448Z,46.01
2018-06-17T02:02:27.943Z,45.42
2018-06-17T02:05:01.609Z,45.61
2018-06-17T02:07:35.310Z,46.18
2018-06-17T02:10:09.177Z,45.26
2018-06-17T02:12:37.625Z,45.78
2018-06-17T02:15:08.288Z,45.35
2018-06-17T02:17:36.765Z,45.38
2018-06-17T02:20:05.292Z,45.46
2018-06-17T02:22:33.830Z,45.80
2018-06-17T02:25:02.317Z,45.41
2018-06-17T02:27:30.790Z,45.27
2018-06-17T02:29:59.199Z,45.72
2018-06-17T02:32:27.660Z,46.09
2018-06-17T02:34:56.032Z,45.74
2018-06-17T02:37:24.406Z,45.53
2018-06-17T02:39:52.892Z,45.59
2018-06-17T02:42:21.721Z,45.74
2018-06-17T02:44:55.427Z,45.89
2018-06-17T02:47:29.189Z,45.95
2018-06-17T02:50:01.801Z,45.90
2018-06-17T02:52:35.694Z,45.97
2018-06-17T02:55:04.098Z,45.78
2018-06-17T02:57:32.580Z,45.09
2018-06-17T03:00:01.072Z,45.72
2018-06-17T03:02:30.485Z,45.18
2018-06-17T03:04:58.866Z,45.88
2018-06-17T03:07:27.240Z,45.62
2018-06-17T03:09:55.736Z,45.82
2018-06-17T03:12:24.235Z,45.70
2018-06-17T03:14:53.505Z,45.28
2018-06-17T03:17:21.934Z,45.07
2018-06-17T03:19:50.393Z,45.21
2018-06-17T03:22:18.849Z,45.77
2018-06-17T03:24:52.849Z,45.05
2018-06-17T03:27:27.192Z,45.08
2018-06-17T03:30:01.391Z,44.84
2018-06-17T03:32:35.264Z,44.78
2018-06-17T03:35:08.946Z,45.25
2018-06-17T03:37:37.381Z,44.93
2018-06-17T03:40:05.819Z,44.92
2018-06-17T03:42:35.027Z,44.79
2018-06-17T03:45:03.712Z,44.79
2018-06-17T03:47:32.116Z,44.75
2018-06-17T03:50:00.513Z,45.54
2018-06-17T03:52:29.012Z,45.47
2018-06-17T03:54:57.492Z,45.40
2018-06-17T03:57:25.973Z,44.66
2018-06-17T03:59:54.435Z,45.32
2018-06-17T04:02:23.266Z,44.64
2018-06-17T04:04:57.237Z,44.48
2018-06-17T04:07:25.679Z,44.67
2018-06-17T04:09:54.109Z,45.26
2018-06-17T04:12:22.625Z,45.34
2018-06-17T04:14:51.134Z,45.24
2018-06-17T04:17:19.594Z,44.56
2018-06-17T04:19:48.011Z,45.00
2018-06-17T04:22:16.727Z,45.08
2018-06-17T04:24:45.205Z,45.15
2018-06-17T04:27:13.593Z,44.63
2018-06-17T04:29:42.009Z,44.93
2018-06-17T04:32:10.478Z,44.81
2018-06-17T04:34:39.406Z,44.42
2018-06-17T04:37:07.857Z,44.39
2018-06-17T04:39:36.608Z,44.80
2018-06-17T04:42:05.550Z,44.49
2018-06-17T04:44:34.150Z,45.10
2018-06-17T04:47:02.761Z,44.31
2018-06-17T04:49:31.764Z,45.01
2018-06-17T04:52:00.550Z,44.57
2018-06-17T04:54:31.976Z,45.22
2018-06-17T04:57:00.409Z,44.50
2018-06-17T04:59:28.936Z,45.09
2018-06-17T05:01:57.404Z,45.07
2018-06-17T05:04:27.144Z,45.14
2018-06-17T05:06:55.526Z,45.04
2018-06-17T05:09:24.200Z,44.84
2018-06-17T05:11:52.861Z,44.32
2018-06-17T05:14:21.601Z,44.96
2018-06-17T05:16:50.132Z,45.09
2018-06-17T05:19:18.944Z,44.24
2018-06-17T05:21:47.429Z,44.99
2018-06-17T05:24:16.709Z,44.44
2018-06-17T05:26:45.132Z,44.90
2018-06-17T05:29:13.756Z,44.85
2018-06-17T05:31:42.229Z,43.97
2018-06-17T05:34:10.978Z,44.27
2018-06-17T05:36:41.842Z,44.99
2018-06-17T05:39:12.332Z,45.10
2018-06-17T05:41:40.739Z,44.51
2018-06-17T05:44:09.240Z,44.29
2018-06-17T05:46:38.029Z,44.83
2018-06-17T05:49:06.787Z,44.22
2018-06-17T05:51:35.372Z,44.23
2018-06-17T05:54:04.133Z,44.21
2018-06-17T05:56:32.700Z,44.30
2018-06-17T05:59:01.184Z,44.21
2018-06-17T06:01:29.655Z,44.91
2018-06-17T06:03:58.753Z,44.20
2018-06-17T06:06:27.160Z,44.33
2018-06-17T06:08:55.572Z,44.66
2018-06-17T06:11:24.237Z,44.20
2018-06-17T06:13:52.725Z,44.94
2018-06-17T06:16:21.288Z,45.02
2018-06-17T06:18:49.670Z,44.84
2018-06-17T06:21:18.067Z,44.28
2018-06-17T06:23:46.527Z,44.10
2018-06-17T06:26:14.988Z,44.85
2018-06-17T06:28:43.384Z,44.76
2018-06-17T06:31:12.036Z,44.05
2018-06-17T06:33:40.515Z,44.74
2018-06-17T06:36:09.021Z,44.08
2018-06-17T06:38:37.462Z,44.31
2018-06-17T06:41:05.973Z,44.05
2018-06-17T06:43:35.804Z,44.02
2018-06-17T06:46:04.984Z,44.37
2018-06-17T06:48:33.382Z,44.23
2018-06-17T06:51:01.887Z,44.73
2018-06-17T06:53:30.342Z,43.77
2018-06-17T06:55:58.753Z,44.52
2018-06-17T06:58:27.169Z,44.40
2018-06-17T07:00:55.594Z,44.64
2018-06-17T07:03:35.572Z,43.85
2018-06-17T07:06:15.221Z,44.33
2018-06-17T07:08:54.848Z,43.82
2018-06-17T07:11:23.268Z,44.44
2018-06-17T07:13:52.576Z,43.80
2018-06-17T07:16:32.177Z,43.41
2018-06-17T07:19:00.625Z,43.08
2018-06-17T07:21:29.012Z,43.87
2018-06-17T07:23:57.729Z,43.67
2018-06-17T07:26:39.578Z,43.42
2018-06-17T07:29:19.721Z,42.84
2018-06-17T07:31:48.116Z,43.31
2018-06-17T07:34:17.115Z,42.44
2018-06-17T07:36:45.632Z,42.48
2018-06-17T07:40:25.245Z,42.46
2018-06-17T07:42:54.000Z,42.58
2018-06-17T07:45:22.541Z,42.44
2018-06-17T07:47:50.966Z,42.86
2018-06-17T07:50:30.623Z,42.75
2018-06-17T07:53:10.347Z,42.92
2018-06-17T07:55:38.924Z,42.23
2018-06-17T07:58:07.560Z,42.03
2018-06-17T08:00:35.952Z,42.34
2018-06-17T08:03:04.905Z,41.95
2018-06-17T08:05:33.654Z,41.90
2018-06-17T08:08:02.213Z,41.92
2018-06-17T08:10:30.900Z,42.70
2018-06-17T08:13:00.370Z,42.47
2018-06-17T08:15:28.916Z,41.64
2018-06-17T08:17:57.366Z,42.33
2018-06-17T08:20:25.824Z,41.58
2018-06-17T08:22:54.235Z,42.18
2018-06-17T08:25:22.789Z,41.52
2018-06-17T08:27:51.197Z,42.19
2018-06-17T08:30:28.611Z,42.00
2018-06-17T08:32:57.617Z,42.11
2018-06-17T08:35:26.419Z,41.36
2018-06-17T08:37:54.885Z,41.58
2018-06-17T08:40:23.272Z,41.38
2018-06-17T08:42:51.745Z,41.37
2018-06-17T08:45:20.471Z,42.01
2018-06-17T08:47:49.324Z,41.25
2018-06-17T08:50:17.792Z,41.28
2018-06-17T08:52:46.167Z,41.28
2018-06-17T08:55:14.684Z,41.10
2018-06-17T08:57:43.312Z,42.09
2018-06-17T09:02:38.429Z,41.76
2018-06-17T09:05:07.126Z,41.91
2018-06-17T09:07:36.541Z,41.85
2018-06-17T09:10:05.141Z,41.33
2018-06-17T09:12:33.677Z,41.27
2018-06-17T09:15:02.222Z,41.10
2018-06-17T09:17:30.666Z,41.59
2018-06-17T09:19:59.892Z,41.46
2018-06-17T09:22:28.351Z,40.73
2018-06-17T09:24:57.382Z,41.31
2018-06-17T09:27:26.192Z,40.79
2018-06-17T09:29:54.649Z,40.78
2018-06-17T09:32:23.116Z,40.69
2018-06-17T09:34:52.085Z,41.18
2018-06-17T09:37:20.805Z,41.00
2018-06-17T09:39:49.235Z,41.15
2018-06-17T09:42:17.780Z,41.16
2018-06-17T09:44:46.353Z,40.25
2018-06-17T09:47:15.184Z,40.25
2018-06-17T09:49:43.645Z,40.15
2018-06-17T09:52:13.069Z,40.49
2018-06-17T09:54:41.739Z,40.01
2018-06-17T09:57:10.335Z,38.84
2018-06-17T09:59:39.903Z,39.36
2018-06-17T10:02:08.349Z,39.64
2018-06-17T10:04:36.771Z,39.27
2018-06-17T10:07:05.392Z,39.85
2018-06-17T10:09:40.946Z,39.95
2018-06-17T10:12:09.497Z,39.28
2018-06-17T10:14:38.023Z,38.74
2018-06-17T10:17:08.909Z,39.80
2018-06-17T10:19:37.350Z,39.95
2018-06-17T10:22:06.831Z,39.78
2018-06-17T10:24:35.313Z,39.17
2018-06-17T10:27:04.032Z,39.35
2018-06-17T10:29:32.692Z,39.71
2018-06-17T10:32:01.664Z,39.02
2018-06-17T10:34:30.192Z,39.63
2018-06-17T10:36:58.737Z,39.79
2018-06-17T10:39:27.804Z,39.70
2018-06-17T10:41:56.228Z,39.86
2018-06-17T10:44:24.736Z,39.81
2018-06-17T10:46:54.306Z,39.26
2018-06-17T10:49:23.018Z,39.93
2018-06-17T10:51:52.122Z,39.92
2018-06-17T10:54:20.565Z,39.35
2018-06-17T10:56:49.069Z,38.92
2018-06-17T10:59:18.165Z,39.84
2018-06-17T11:01:46.789Z,39.19
2018-06-17T11:04:15.230Z,39.01
2018-06-17T11:06:43.669Z,38.95
2018-06-17T11:09:12.350Z,38.78
2018-06-17T11:11:41.526Z,39.57
2018-06-17T11:14:09.990Z,38.92
2018-06-17T11:16:38.668Z,38.84
2018-06-17T11:19:07.396Z,39.07
2018-06-17T11:21:35.977Z,40.01
2018-06-17T11:24:04.761Z,39.90
2018-06-17T11:26:33.334Z,40.03
2018-06-17T11:29:01.882Z,40.30
2018-06-17T11:31:31.197Z,40.23
2018-06-17T11:33:59.647Z,39.30
2018-06-17T11:36:28.125Z,39.68
2018-06-17T11:38:56.775Z,39.60
2018-06-17T11:41:25.494Z,39.73
2018-06-17T11:43:53.958Z,39.80
2018-06-17T11:46:22.753Z,39.06
2018-06-17T11:48:51.302Z,40.00
2018-06-17T11:51:19.988Z,40.10
2018-06-17T11:53:48.393Z,40.22
2018-06-17T11:56:16.961Z,40.28
2018-06-17T11:58:45.721Z,39.49
2018-06-17T12:01:14.763Z,39.22
2018-06-17T12:03:43.265Z,40.10
2018-06-17T12:06:11.767Z,40.25
2018-06-17T12:08:40.215Z,39.94
2018-06-17T12:11:08.953Z,39.26
2018-06-17T12:13:39.409Z,40.03
2018-06-17T12:16:07.945Z,39.85
2018-06-17T12:18:36.553Z,39.86
2018-06-17T12:21:04.973Z,39.35
2018-06-17T12:23:33.574Z,40.11
2018-06-17T12:26:02.109Z,40.05
2018-06-17T12:28:30.652Z,39.39
2018-06-17T12:30:59.489Z,39.98
2018-06-17T12:33:28.341Z,39.98
2018-06-17T12:35:56.897Z,39.16
2018-06-17T12:38:25.592Z,39.10
2018-06-17T12:40:54.073Z,39.31
2018-06-17T12:43:23.645Z,39.83
2018-06-17T12:45:52.161Z,39.46
2018-06-17T12:48:20.801Z,39.08
2018-06-17T12:50:50.135Z,39.74
2018-06-17T12:53:18.755Z,39.13
2018-06-17T12:55:48.420Z,39.28
2018-06-17T12:58:17.151Z,39.12
2018-06-17T13:00:46.716Z,39.69
2018-06-17T13:03:15.933Z,39.70
2018-06-17T13:05:45.095Z,39.85
2018-06-17T13:08:14.792Z,40.14
2018-06-17T13:10:43.782Z,39.84
2018-06-17T13:13:14.258Z,39.97
2018-06-17T13:15:43.626Z,39.79
2018-06-17T13:18:12.970Z,39.84
2018-06-17T13:20:42.028Z,39.29
2018-06-17T13:23:12.358Z,39.31
2018-06-17T13:25:40.908Z,39.26
2018-06-17T13:28:10.914Z,39.86
2018-06-17T13:30:40.725Z,39.43
2018-06-17T13:33:09.947Z,39.33
2018-06-17T13:35:39.137Z,39.51
2018-06-17T13:38:08.101Z,39.73
2018-06-17T13:40:37.649Z,40.19
2018-06-17T13:43:06.734Z,40.41
2018-06-17T13:45:35.626Z,40.42
2018-06-17T13:48:06.286Z,39.90
2018-06-17T13:50:35.323Z,40.52
2018-06-17T13:53:04.422Z,40.21
2018-06-17T13:55:34.234Z,39.72
2018-06-17T13:58:03.948Z,40.65
2018-06-17T14:00:43.367Z,39.67
2018-06-17T14:03:13.602Z,40.45
2018-06-17T14:05:42.999Z,39.04
2018-06-17T14:08:13.044Z,39.90
2018-06-17T14:10:42.654Z,39.70
2018-06-17T14:13:13.352Z,39.34
2018-06-17T14:15:43.143Z,39.91
2018-06-17T14:18:11.974Z,39.18
2018-06-17T14:20:41.287Z,38.86
2018-06-17T14:23:10.574Z,39.47
2018-06-17T14:25:39.323Z,39.82
2018-06-17T14:28:07.833Z,38.85
2018-06-17T14:30:36.418Z,38.93
2018-06-17T14:33:05.030Z,39.53
2018-06-17T14:35:34.370Z,39.45
2018-06-17T14:38:03.201Z,38.99
2018-06-17T14:40:35.950Z,39.90
2018-06-17T14:43:10.152Z,40.62
2018-06-17T14:45:44.087Z,40.53
2018-06-17T14:48:18.778Z,39.61
2018-06-17T14:50:52.571Z,39.94
2018-06-17T14:53:21.934Z,39.55
2018-06-17T14:55:51.631Z,39.32
2018-06-17T14:58:20.168Z,38.21
2018-06-17T15:00:49.197Z,38.61
2018-06-17T15:03:17.873Z,38.93
2018-06-17T15:05:47.001Z,40.77
2018-06-17T15:08:16.514Z,39.54
2018-06-17T15:10:45.101Z,37.73
2018-06-17T15:13:19.330Z,37.58
2018-06-17T15:15:48.698Z,37.84
2018-06-17T15:18:18.492Z,37.58
2018-06-17T15:20:47.143Z,38.27
2018-06-17T15:23:15.801Z,37.70
2018-06-17T15:25:44.413Z,37.42
2018-06-17T15:28:12.958Z,37.28
2018-06-17T15:30:41.461Z,37.29
2018-06-17T15:33:15.371Z,37.00
2018-06-17T15:35:49.084Z,37.07
2018-06-17T15:38:22.705Z,37.11
2018-06-17T15:40:57.375Z,37.56
2018-06-17T15:43:26.353Z,37.64
2018-06-17T15:45:55.657Z,37.34
2018-06-17T15:48:24.151Z,37.11
2018-06-17T15:50:52.656Z,38.02
2018-06-17T15:53:21.499Z,38.13
2018-06-17T15:55:50.989Z,37.75
2018-06-17T15:58:19.569Z,36.97
2018-06-17T16:00:48.290Z,36.94
2018-06-17T16:03:18.144Z,36.95
2018-06-17T16:05:47.824Z,37.09
2018-06-17T16:08:16.289Z,36.98
2018-06-17T16:10:44.764Z,37.16
2018-06-17T16:13:19.057Z,37.45
2018-06-17T16:15:53.018Z,36.78
2018-06-17T16:18:27.092Z,36.67
2018-06-17T16:20:59.648Z,37.46
2018-06-17T16:23:29.304Z,37.23
2018-06-17T16:25:59.180Z,37.50
2018-06-17T16:28:29.235Z,37.47
2018-06-17T16:30:57.712Z,37.41
2018-06-17T16:33:26.633Z,36.65
2018-06-17T16:35:55.205Z,36.73
2018-06-17T16:38:23.989Z,37.33
2018-06-17T16:40:52.454Z,37.05
2018-06-17T16:43:20.906Z,37.19
2018-06-17T16:45:49.506Z,36.48
2018-06-17T16:48:17.954Z,36.42
2018-06-17T16:50:52.226Z,36.18
2018-06-17T16:53:26.241Z,36.55
2018-06-17T16:56:00.613Z,36.18
2018-06-17T16:59:32.908Z,36.12
2018-06-17T17:02:01.553Z,36.42
2018-06-17T17:04:30.138Z,36.61
2018-06-17T17:06:58.668Z,36.95
2018-06-17T17:09:27.264Z,37.24
2018-06-17T17:11:55.773Z,37.03
2018-06-17T17:14:24.246Z,37.17
2018-06-17T17:16:52.795Z,36.79
2018-06-17T17:19:21.328Z,37.15
2018-06-17T17:21:50.614Z,36.60
2018-06-17T17:24:19.210Z,36.49
2018-06-17T17:26:48.539Z,37.18
2018-06-17T17:29:17.058Z,36.79
2018-06-17T17:31:50.854Z,36.82
2018-06-17T17:34:25.081Z,37.06
2018-06-17T17:36:58.811Z,36.92
2018-06-17T17:39:34.169Z,36.62
2018-06-17T17:42:02.753Z,37.38
2018-06-17T17:44:35.353Z,37.70
2018-06-17T17:47:09.059Z,37.03
2018-06-17T17:49:37.536Z,37.57
2018-06-17T17:52:06.062Z,37.36
2018-06-17T17:54:34.763Z,37.42
2018-06-17T17:57:03.475Z,37.18
2018-06-17T17:59:32.045Z,38.06
2018-06-17T18:02:00.682Z,36.94
2018-06-17T18:04:30.820Z,37.13
2018-06-17T18:06:59.489Z,36.72
2018-06-17T18:09:27.961Z,36.92
2018-06-17T18:11:57.394Z,38.41
2018-06-17T18:14:27.121Z,37.52
2018-06-17T18:16:57.867Z,38.36
2018-06-17T18:19:27.068Z,37.33
2018-06-17T18:21:55.784Z,37.13
2018-06-17T18:24:24.508Z,37.56
2018-06-17T18:26:58.441Z,38.06
2018-06-17T18:29:32.169Z,37.24
2018-06-17T18:32:07.174Z,38.23
2018-06-17T18:34:41.015Z,37.37
2018-06-17T18:37:09.643Z,37.89
2018-06-17T18:39:38.600Z,36.99
2018-06-17T18:42:07.173Z,37.66
2018-06-17T18:44:35.797Z,37.50
2018-06-17T18:47:04.414Z,37.75
2018-06-17T18:49:33.341Z,39.44
2018-06-17T18:52:02.109Z,38.83
2018-06-17T18:54:30.705Z,37.19
2018-06-17T18:56:59.232Z,40.75
2018-06-17T18:59:27.825Z,37.69
2018-06-17T19:01:56.904Z,40.62
2018-06-17T19:04:25.412Z,37.96
2018-06-17T19:06:53.946Z,37.54
2018-06-17T19:09:27.943Z,38.82
2018-06-17T19:12:01.883Z,38.47
2018-06-17T19:14:35.606Z,37.50
2018-06-17T19:17:10.159Z,37.78
2018-06-17T19:19:38.598Z,37.46
2018-06-17T19:22:07.315Z,37.45
2018-06-17T19:24:36.184Z,37.34
2018-06-17T19:27:05.143Z,37.13
2018-06-17T19:29:33.709Z,37.05
2018-06-17T19:32:02.255Z,37.87
2018-06-17T19:34:30.870Z,37.48
2018-06-17T19:36:59.524Z,39.29
2018-06-17T19:39:28.396Z,38.17
2018-06-17T19:41:56.949Z,37.27
2018-06-17T19:44:25.442Z,38.13
2018-06-17T19:46:55.884Z,37.78
2018-06-17T19:50:29.587Z,37.95
2018-06-17T19:53:03.236Z,37.68
2018-06-17T19:55:36.884Z,37.95
2018-06-17T19:58:10.794Z,37.39
2018-06-17T20:00:50.449Z,37.79
2018-06-17T20:03:19.020Z,38.05
2018-06-17T20:05:47.600Z,37.83
2018-06-17T20:08:16.168Z,38.59
2018-06-17T20:10:44.746Z,38.18
2018-06-17T20:13:13.374Z,38.12
2018-06-17T20:15:41.865Z,39.04
2018-06-17T20:18:10.725Z,38.39
2018-06-17T20:20:39.139Z,38.52
2018-06-17T20:23:07.769Z,38.67
2018-06-17T20:25:37.286Z,39.40
2018-06-17T20:28:05.888Z,38.61
2018-06-17T20:30:46.634Z,38.90
2018-06-17T20:33:20.324Z,38.84
2018-06-17T20:35:54.089Z,38.18
2018-06-17T20:38:28.084Z,38.48
2018-06-17T20:41:01.937Z,38.60
2018-06-17T20:43:49.675Z,41.25
2018-06-17T20:46:18.541Z,38.20
2018-06-17T20:48:47.806Z,38.04
2018-06-17T20:51:16.795Z,38.78
2018-06-17T20:53:45.945Z,38.91
2018-06-17T20:56:14.436Z,38.23
2018-06-17T20:58:43.200Z,38.06
2018-06-17T21:01:11.780Z,38.20
2018-06-17T21:03:42.629Z,38.11
2018-06-17T21:06:12.249Z,38.31
2018-06-17T21:08:41.642Z,38.55
2018-06-17T21:11:10.938Z,38.86
2018-06-17T21:13:40.334Z,39.07
2018-06-17T21:16:10.179Z,38.86
2018-06-17T21:18:44.626Z,39.15
2018-06-17T21:21:19.641Z,38.58
2018-06-17T21:23:54.564Z,38.42
2018-06-17T21:27:30.898Z,38.51
2018-06-17T21:30:01.382Z,39.12
2018-06-17T21:32:31.453Z,39.23
2018-06-17T21:35:00.961Z,38.90
2018-06-17T21:37:30.864Z,39.43
2018-06-17T21:40:00.401Z,39.37
2018-06-17T21:42:29.695Z,39.03
2018-06-17T21:44:59.124Z,39.54
2018-06-17T21:47:29.381Z,39.69
2018-06-17T21:49:59.530Z,39.72
2018-06-17T21:52:29.019Z,39.72
2018-06-17T21:54:58.177Z,38.89
2018-06-17T21:57:26.899Z,39.09
2018-06-17T21:59:56.331Z,39.74
2018-06-17T22:02:25.411Z,39.96
2018-06-17T22:04:55.366Z,39.28
2018-06-17T22:07:24.229Z,40.12
2018-06-17T22:09:59.161Z,40.16
2018-06-17T22:12:33.442Z,39.36
2018-06-17T22:15:07.377Z,39.42
2018-06-17T22:17:42.294Z,39.79
2018-06-17T22:20:10.839Z,40.24
2018-06-17T22:22:39.352Z,40.45
2018-06-17T22:25:08.387Z,39.89
2018-06-17T22:27:37.556Z,40.45
2018-06-17T22:30:06.129Z,39.93
2018-06-17T22:32:35.344Z,39.77
2018-06-17T22:35:03.824Z,40.33
2018-06-17T22:37:32.643Z,39.79
2018-06-17T22:40:01.405Z,39.78
2018-06-17T22:42:29.875Z,40.63
2018-06-17T22:44:58.542Z,40.43
2018-06-17T22:47:32.317Z,39.87
2018-06-17T22:50:00.887Z,40.69
2018-06-17T22:52:29.487Z,39.46
2018-06-17T22:54:57.959Z,40.49
2018-06-17T22:57:31.873Z,40.72
2018-06-17T23:00:05.820Z,40.94
2018-06-17T23:02:39.555Z,40.29
2018-06-17T23:05:13.406Z,40.96
2018-06-17T23:07:47.318Z,40.20
2018-06-17T23:10:16.356Z,40.28
2018-06-17T23:12:45.394Z,40.73
2018-06-17T23:15:13.844Z,40.66
2018-06-17T23:17:42.425Z,41.16
2018-06-17T23:20:11.361Z,41.02
2018-06-17T23:22:39.822Z,40.39
2018-06-17T23:25:08.277Z,40.52
2018-06-17T23:27:36.850Z,40.50
2018-06-17T23:30:05.980Z,41.18
2018-06-17T23:32:34.577Z,41.22
2018-06-17T23:35:03.063Z,41.35
2018-06-17T23:37:32.008Z,40.48
2018-06-17T23:40:00.640Z,40.50
2018-06-17T23:42:29.178Z,41.39
2018-06-17T23:44:58.459Z,41.46
2018-06-17T23:47:32.190Z,41.43
2018-06-17T23:50:06.041Z,40.96
2018-06-17T23:52:39.682Z,41.14
2018-06-17T23:55:13.451Z,40.77
2018-06-17T23:57:41.962Z,40.77
